Time;durP1;ratioP1;P1;durP2;ratioP2;P2;SDS_P1;SDS_P2;PMS_P1;PMS_P2;Temp;Humidity;BMP_temperature;BMP_pressure;BME280_temperature;BME280_humidity;BME280_pressure;Samples;Min_cycle;Max_cycle;Signal;HPM_P1;HPM_P2
2024/02/06 00:00:45;;;;;;;2.30;0.38;;;10.30;99.90;;;;;;6337210;22;20003;-86
2024/02/06 00:03:10;;;;;;;3.50;0.70;;;10.30;99.90;;;;;;6337185;22;20011;-86
2024/02/06 00:05:37;;;;;;;3.58;0.50;;;10.30;99.90;;;;;;6336991;22;20426;-85
2024/02/06 00:08:03;;;;;;;2.15;0.70;;;10.30;99.90;;;;;;6339542;22;20094;-84
2024/02/06 00:10:28;;;;;;;6.22;1.58;;;10.40;99.90;;;;;;6345931;22;19999;-87
2024/02/06 00:12:54;;;;;;;2.00;0.68;;;10.40;99.90;;;;;;6345845;22;20055;-85
2024/02/06 00:15:20;;;;;;;0.85;0.30;;;10.40;99.90;;;;;;6340426;22;20068;-87
2024/02/06 00:17:46;;;;;;;3.97;0.55;;;10.40;99.90;;;;;;6339798;22;20083;-86
2024/02/06 00:20:12;;;;;;;3.05;1.15;;;10.40;99.90;;;;;;6315396;22;20007;-86
2024/02/06 00:22:40;;;;;;;1.13;0.40;;;10.40;99.90;;;;;;6341662;22;20045;-86
2024/02/06 00:25:06;;;;;;;2.28;0.55;;;10.40;99.90;;;;;;6339350;22;19999;-86
2024/02/06 00:27:33;;;;;;;1.63;0.47;;;10.40;99.90;;;;;;6336944;22;20006;-85
2024/02/06 00:29:59;;;;;;;3.97;0.73;;;10.40;99.90;;;;;;6337096;22;20010;-86
2024/02/06 00:32:24;;;;;;;2.65;0.80;;;10.40;99.90;;;;;;6338417;22;20014;-87
2024/02/06 00:34:52;;;;;;;1.35;0.35;;;10.40;99.90;;;;;;6336658;22;20253;-86
2024/02/06 00:37:17;;;;;;;6.07;0.70;;;10.40;99.90;;;;;;6336432;22;20433;-86
2024/02/06 00:39:43;;;;;;;3.15;0.90;;;10.40;99.90;;;;;;6336287;22;20002;-87
2024/02/06 00:42:10;;;;;;;1.35;0.35;;;10.40;99.90;;;;;;6336385;22;19998;-86
2024/02/06 00:44:35;;;;;;;0.55;0.45;;;10.40;99.90;;;;;;6336116;22;20429;-87
2024/02/06 00:47:01;;;;;;;2.40;0.50;;;10.40;99.90;;;;;;6336261;22;20009;-86
2024/02/06 00:49:27;;;;;;;1.75;0.60;;;10.40;99.90;;;;;;6334871;22;20062;-87
2024/02/06 00:51:52;;;;;;;0.98;0.20;;;10.30;99.90;;;;;;6309982;22;20043;-86
2024/02/06 00:54:18;;;;;;;2.33;0.70;;;10.40;99.90;;;;;;6335779;22;20454;-87
2024/02/06 00:56:44;;;;;;;3.72;0.80;;;10.40;99.90;;;;;;6336310;22;20438;-86
2024/02/06 00:59:09;;;;;;;1.90;1.30;;;10.30;99.90;;;;;;6336303;22;20006;-86
2024/02/06 01:01:35;;;;;;;3.33;1.00;;;10.30;99.90;;;;;;6336368;22;20338;-86
2024/02/06 01:04:00;;;;;;;4.57;0.80;;;10.30;99.90;;;;;;6336007;22;20013;-87
2024/02/06 01:06:27;;;;;;;3.17;0.38;;;10.30;99.90;;;;;;6336347;22;20473;-85
2024/02/06 01:08:53;;;;;;;4.47;0.70;;;10.30;99.90;;;;;;6336061;22;20006;-86
2024/02/06 01:11:19;;;;;;;1.90;0.60;;;10.20;99.90;;;;;;6336122;22;20049;-87
2024/02/06 01:13:44;;;;;;;3.75;0.73;;;10.30;99.90;;;;;;6335899;22;20003;-87
2024/02/06 01:21:20;;;;;;;3.28;1.13;;;10.30;99.90;;;;;;6307762;22;20025;-86
2024/02/06 01:23:46;;;;;;;3.17;0.70;;;10.20;99.90;;;;;;6341577;22;20029;-86
2024/02/06 01:26:12;;;;;;;3.92;0.77;;;10.20;99.90;;;;;;6342179;22;20256;-87
2024/02/06 01:28:38;;;;;;;2.83;0.65;;;10.20;99.90;;;;;;6343861;22;20009;-87
2024/02/06 01:31:04;;;;;;;6.00;0.93;;;10.20;99.90;;;;;;6371213;22;20014;-86
2024/02/06 01:33:30;;;;;;;4.82;0.88;;;10.20;99.90;;;;;;6343435;22;19999;-88
2024/02/06 01:35:55;;;;;;;4.60;0.90;;;10.20;99.90;;;;;;6343204;22;20006;-86
2024/02/06 01:38:22;;;;;;;2.67;0.80;;;10.20;99.90;;;;;;6343638;22;20003;-87
2024/02/06 01:40:48;;;;;;;10.52;1.92;;;10.20;99.90;;;;;;6371841;22;20021;-87
2024/02/06 01:43:13;;;;;;;2.92;0.52;;;10.20;99.90;;;;;;6343917;22;19998;-87
2024/02/06 01:45:40;;;;;;;4.15;0.88;;;10.20;99.90;;;;;;6343349;22;20009;-87
2024/02/06 01:48:07;;;;;;;4.47;1.42;;;10.20;99.90;;;;;;6370557;22;19994;-87
2024/02/06 01:50:33;;;;;;;0.55;0.50;;;10.20;99.90;;;;;;6342909;22;20010;-88
2024/02/06 01:52:59;;;;;;;1.15;0.60;;;10.20;99.90;;;;;;6343078;22;20367;-87
2024/02/06 01:55:25;;;;;;;3.72;0.82;;;10.20;99.90;;;;;;6343208;22;20003;-87
2024/02/06 01:57:51;;;;;;;2.78;0.75;;;10.20;99.90;;;;;;6343078;22;20016;-87
2024/02/06 02:00:17;;;;;;;4.50;0.82;;;10.20;99.90;;;;;;6342879;22;20002;-88
2024/02/06 02:02:43;;;;;;;3.38;0.85;;;10.20;99.90;;;;;;6342784;22;20021;-86
2024/02/06 02:05:11;;;;;;;3.28;0.65;;;10.10;99.90;;;;;;6371481;22;20461;-87
2024/02/06 02:07:37;;;;;;;5.47;0.80;;;10.20;99.90;;;;;;6343108;22;20009;-87
2024/02/06 02:10:03;;;;;;;1.58;0.55;;;10.10;99.90;;;;;;6343090;22;20029;-86
2024/02/06 02:12:29;;;;;;;0.95;0.52;;;10.20;99.90;;;;;;6342664;22;20384;-86
2024/02/06 02:14:55;;;;;;;4.50;0.95;;;10.10;99.90;;;;;;6343248;22;19999;-87
2024/02/06 02:17:22;;;;;;;4.10;0.70;;;10.10;99.90;;;;;;6343225;22;20009;-87
2024/02/06 02:19:47;;;;;;;6.80;1.00;;;10.10;99.90;;;;;;6370612;22;20025;-87
2024/02/06 02:22:13;;;;;;;1.58;0.52;;;10.10;99.90;;;;;;6342886;22;20014;-86
2024/02/06 02:24:38;;;;;;;3.67;0.95;;;10.10;99.90;;;;;;6342600;22;20009;-88
2024/02/06 02:27:05;;;;;;;1.55;0.90;;;10.10;99.90;;;;;;6342704;22;20034;-88
2024/02/06 02:29:32;;;;;;;1.00;0.60;;;10.10;99.90;;;;;;6370739;22;20452;-87
2024/02/06 02:31:59;;;;;;;1.20;0.43;;;10.10;99.90;;;;;;6341784;22;20064;-87
2024/02/06 02:34:24;;;;;;;2.13;0.57;;;10.10;99.90;;;;;;6342310;22;20053;-87
2024/02/06 02:36:50;;;;;;;4.38;0.88;;;10.10;99.90;;;;;;6342168;22;20429;-88
2024/02/06 02:39:16;;;;;;;1.85;0.70;;;10.10;99.90;;;;;;6342134;22;20030;-87
2024/02/06 02:41:41;;;;;;;2.03;0.80;;;10.10;99.90;;;;;;6342470;22;20068;-85
2024/02/06 02:44:07;;;;;;;0.30;0.30;;;10.10;99.90;;;;;;6370872;22;20029;-87
2024/02/06 02:46:33;;;;;;;2.63;1.05;;;10.10;99.90;;;;;;6342500;22;20002;-86
2024/02/06 02:48:59;;;;;;;2.28;0.90;;;10.10;99.90;;;;;;6342400;22;19998;-87
2024/02/06 02:51:24;;;;;;;3.05;0.70;;;10.10;99.90;;;;;;6342141;22;20064;-87
2024/02/06 02:53:50;;;;;;;1.85;0.77;;;10.00;99.90;;;;;;6342282;22;19999;-87
2024/02/06 02:56:17;;;;;;;2.80;0.73;;;10.00;99.90;;;;;;6342582;22;20002;-86
2024/02/06 02:58:42;;;;;;;3.15;0.80;;;10.00;99.90;;;;;;6342305;22;20014;-87
2024/02/06 03:01:09;;;;;;;1.80;0.70;;;10.00;99.90;;;;;;6342141;22;20456;-86
2024/02/06 03:03:35;;;;;;;1.73;0.55;;;10.00;99.90;;;;;;6370206;22;20001;-87
2024/02/06 03:06:01;;;;;;;2.63;0.60;;;10.00;99.90;;;;;;6342337;22;20002;-87
2024/02/06 03:08:27;;;;;;;2.17;0.75;;;10.00;99.90;;;;;;6370025;22;20413;-87
2024/02/06 03:10:52;;;;;;;1.73;0.50;;;10.00;99.90;;;;;;6342236;22;20003;-87
2024/02/06 03:13:18;;;;;;;1.75;0.60;;;10.00;99.90;;;;;;6342316;22;20044;-88
2024/02/06 03:15:44;;;;;;;1.48;0.28;;;10.00;99.90;;;;;;6369996;22;20021;-87
2024/02/06 03:18:10;;;;;;;1.95;0.50;;;10.00;99.90;;;;;;6341991;22;20010;-84
2024/02/06 03:20:36;;;;;;;1.58;0.50;;;10.00;99.90;;;;;;6341724;22;20005;-86
2024/02/06 03:23:01;;;;;;;1.50;0.60;;;10.00;99.90;;;;;;6342491;22;20003;-86
2024/02/06 03:25:27;;;;;;;2.35;0.98;;;10.00;99.90;;;;;;6342277;22;19995;-86
2024/02/06 03:27:54;;;;;;;0.98;0.50;;;10.00;99.90;;;;;;6370220;22;20077;-87
2024/02/06 03:30:20;;;;;;;1.20;0.50;;;10.00;99.90;;;;;;6370322;22;20348;-86
2024/02/06 03:32:47;;;;;;;0.95;0.30;;;10.00;99.90;;;;;;6342184;22;20017;-87
2024/02/06 03:35:13;;;;;;;2.22;0.50;;;10.00;99.90;;;;;;6342426;22;20008;-88
2024/02/06 03:37:39;;;;;;;0.40;0.32;;;9.90;99.90;;;;;;6371713;22;19994;-86
2024/02/06 03:40:08;;;;;;;3.22;0.50;;;9.90;99.90;;;;;;6372757;22;19994;-86
2024/02/06 03:42:34;;;;;;;1.63;0.40;;;10.00;99.90;;;;;;6344479;22;19999;-87
2024/02/06 03:45:00;;;;;;;3.95;0.68;;;9.90;99.90;;;;;;6342234;22;20045;-87
2024/02/06 03:47:26;;;;;;;1.75;0.52;;;9.90;99.90;;;;;;6342198;22;20081;-87
2024/02/06 03:49:53;;;;;;;2.83;0.60;;;10.00;99.90;;;;;;6370185;22;20356;-87
2024/02/06 03:52:18;;;;;;;1.27;0.38;;;10.00;99.90;;;;;;6370050;22;20392;-87
2024/02/06 03:54:44;;;;;;;1.67;0.32;;;9.90;99.90;;;;;;6370116;22;20030;-87
2024/02/06 03:57:10;;;;;;;2.95;0.40;;;9.90;99.90;;;;;;6342027;22;20002;-86
2024/02/06 03:59:36;;;;;;;0.15;0.15;;;9.90;99.90;;;;;;6341695;22;20044;-87
2024/02/06 04:02:03;;;;;;;1.55;0.73;;;9.90;99.90;;;;;;6342047;22;20002;-86
2024/02/06 04:04:29;;;;;;;0.73;0.20;;;9.90;99.90;;;;;;6341979;22;20002;-87
2024/02/06 04:06:54;;;;;;;0.93;0.30;;;10.00;99.90;;;;;;6370029;22;20310;-87
2024/02/06 04:09:20;;;;;;;1.27;0.30;;;10.00;99.90;;;;;;6341822;22;20094;-88
2024/02/06 04:11:46;;;;;;;0.32;0.10;;;10.00;99.90;;;;;;6341797;22;20063;-86
2024/02/06 04:14:11;;;;;;;1.58;0.60;;;10.00;99.90;;;;;;6341536;22;20009;-86
2024/02/06 04:16:37;;;;;;;1.90;0.20;;;10.10;99.90;;;;;;6341694;22;20387;-87
2024/02/06 04:19:03;;;;;;;2.35;0.45;;;10.10;99.90;;;;;;6369481;22;20032;-86
2024/02/06 04:21:28;;;;;;;0.55;0.43;;;10.10;99.90;;;;;;6341270;22;20059;-87
2024/02/06 04:23:55;;;;;;;0.68;0.40;;;10.10;99.90;;;;;;6341620;22;20010;-87
2024/02/06 04:26:21;;;;;;;1.75;0.32;;;10.10;99.90;;;;;;6341693;22;20077;-86
2024/02/06 04:28:46;;;;;;;2.10;0.47;;;10.10;99.90;;;;;;6341360;22;20030;-87
2024/02/06 04:31:12;;;;;;;2.72;0.30;;;10.10;99.90;;;;;;6369131;22;20006;-88
2024/02/06 04:33:39;;;;;;;2.75;0.43;;;10.10;99.90;;;;;;6341603;22;20029;-86
2024/02/06 04:36:05;;;;;;;2.83;0.35;;;10.10;99.90;;;;;;6341542;22;20093;-88
2024/02/06 04:38:31;;;;;;;3.00;0.38;;;10.10;99.90;;;;;;6369370;22;20033;-87
2024/02/06 04:40:57;;;;;;;1.23;0.30;;;10.10;99.90;;;;;;6369289;22;20009;-87
2024/02/06 04:43:23;;;;;;;1.27;0.20;;;10.10;99.90;;;;;;6369334;22;20333;-87
2024/02/06 04:45:48;;;;;;;3.55;0.50;;;10.10;99.90;;;;;;6341480;22;20005;-87
2024/02/06 04:48:14;;;;;;;0.60;0.30;;;10.00;99.90;;;;;;6369198;22;19994;-87
2024/02/06 04:50:40;;;;;;;0.75;0.40;;;10.10;99.90;;;;;;6369080;22;19992;-87
2024/02/06 04:53:05;;;;;;;2.13;0.38;;;10.00;99.90;;;;;;6341134;22;20010;-87
2024/02/06 04:55:31;;;;;;;1.42;0.30;;;10.00;99.90;;;;;;6369082;22;19998;-86
2024/02/06 04:58:00;;;;;;;0.70;0.40;;;10.00;99.90;;;;;;6369210;22;20006;-86
2024/02/06 05:00:26;;;;;;;1.25;0.40;;;10.00;99.90;;;;;;6340971;22;20003;-87
2024/02/06 05:02:52;;;;;;;2.17;0.35;;;10.00;99.90;;;;;;6341226;22;20415;-87
2024/02/06 05:05:18;;;;;;;0.82;0.30;;;10.00;99.90;;;;;;6341379;22;20082;-87
2024/02/06 05:07:43;;;;;;;0.90;0.40;;;10.00;99.90;;;;;;6369091;22;20002;-87
2024/02/06 05:10:12;;;;;;;0.40;0.20;;;10.00;99.90;;;;;;6369209;22;20050;-86
2024/02/06 05:12:38;;;;;;;2.40;0.77;;;10.00;99.90;;;;;;6368694;22;20002;-86
2024/02/06 05:15:04;;;;;;;1.10;0.30;;;10.00;99.90;;;;;;6341364;22;20011;-86
2024/02/06 05:17:30;;;;;;;1.15;0.30;;;10.00;99.90;;;;;;6369344;22;20020;-87
2024/02/06 05:19:56;;;;;;;2.75;0.55;;;10.00;99.90;;;;;;6341351;22;20445;-86
2024/02/06 05:22:22;;;;;;;0.98;0.20;;;10.00;99.90;;;;;;6336018;22;20018;-87
2024/02/06 05:24:48;;;;;;;3.70;0.30;;;10.00;99.90;;;;;;6338024;22;20030;-86
2024/02/06 05:27:14;;;;;;;0.55;0.20;;;10.00;99.90;;;;;;6311173;22;20003;-86
2024/02/06 05:29:40;;;;;;;5.57;1.48;;;10.00;99.90;;;;;;6313237;22;20002;-86
2024/02/06 05:32:06;;;;;;;2.25;0.63;;;10.00;99.90;;;;;;6340471;22;20011;-86
2024/02/06 05:34:31;;;;;;;0.20;0.20;;;10.00;99.90;;;;;;6312612;22;20003;-87
2024/02/06 05:36:57;;;;;;;2.47;0.30;;;10.00;99.90;;;;;;6312160;22;20429;-87
2024/02/06 05:39:23;;;;;;;0.28;0.20;;;10.00;99.90;;;;;;6314787;22;20007;-86
2024/02/06 05:41:49;;;;;;;0.55;0.20;;;10.00;99.90;;;;;;6310615;22;20082;-86
2024/02/06 05:44:14;;;;;;;1.02;0.43;;;10.00;99.90;;;;;;6337471;22;20006;-85
2024/02/06 05:46:40;;;;;;;2.13;0.60;;;10.00;99.90;;;;;;6337038;22;20018;-87
2024/02/06 05:49:06;;;;;;;0.90;0.10;;;10.00;99.90;;;;;;6309617;22;20003;-86
2024/02/06 05:51:32;;;;;;;0.65;0.40;;;10.00;99.90;;;;;;6310257;22;20341;-86
2024/02/06 05:53:57;;;;;;;0.65;0.40;;;10.00;99.90;;;;;;6310147;22;20033;-86
2024/02/06 05:56:23;;;;;;;0.52;0.20;;;10.00;99.90;;;;;;6337450;22;20005;-87
2024/02/06 05:58:49;;;;;;;0.47;0.22;;;10.00;99.90;;;;;;6337757;22;19999;-86
2024/02/06 06:01:15;;;;;;;1.13;0.50;;;10.00;99.90;;;;;;6310510;22;20003;-87
2024/02/06 06:03:40;;;;;;;0.88;0.17;;;10.00;99.90;;;;;;6338293;22;20334;-86
2024/02/06 06:06:06;;;;;;;1.90;0.17;;;9.90;99.90;;;;;;6337901;22;20002;-87
2024/02/06 06:08:32;;;;;;;1.27;0.85;;;9.90;99.90;;;;;;6310050;22;20031;-86
2024/02/06 06:10:57;;;;;;;1.10;0.20;;;9.90;99.90;;;;;;6309584;22;20002;-86
2024/02/06 06:13:26;;;;;;;1.00;0.10;;;9.90;99.90;;;;;;6338743;22;20014;-86
2024/02/06 06:15:52;;;;;;;0.63;0.10;;;9.90;99.90;;;;;;6339293;22;20002;-85
2024/02/06 06:18:17;;;;;;;0.20;0.10;;;9.90;99.90;;;;;;6337572;22;20006;-85
2024/02/06 06:20:44;;;;;;;0.00;0.00;;;9.90;99.90;;;;;;6339810;22;20089;-87
2024/02/06 06:23:10;;;;;;;1.15;0.30;;;9.90;99.90;;;;;;6342460;22;20014;-85
2024/02/06 06:25:35;;;;;;;0.70;0.15;;;9.90;99.90;;;;;;6316642;22;20007;-85
2024/02/06 06:28:02;;;;;;;1.92;0.28;;;9.80;99.90;;;;;;6370476;22;20043;-87
2024/02/06 06:30:28;;;;;;;0.20;0.17;;;9.80;99.90;;;;;;6342602;22;20003;-87
2024/02/06 06:32:54;;;;;;;0.20;0.10;;;9.80;99.90;;;;;;6370486;22;20018;-86
2024/02/06 06:35:19;;;;;;;0.70;0.50;;;9.80;99.90;;;;;;6342862;22;20060;-87
2024/02/06 06:37:45;;;;;;;0.52;0.13;;;9.80;99.90;;;;;;6342557;22;20010;-86
2024/02/06 06:40:12;;;;;;;0.05;0.05;;;9.80;99.90;;;;;;6370526;22;19998;-87
2024/02/06 06:42:37;;;;;;;0.10;0.10;;;9.80;99.90;;;;;;6370763;22;20002;-86
2024/02/06 06:45:03;;;;;;;1.10;0.30;;;9.80;99.90;;;;;;6342305;22;20379;-87
2024/02/06 06:47:29;;;;;;;0.38;0.00;;;9.80;99.90;;;;;;6342257;22;20063;-87
2024/02/06 06:49:55;;;;;;;1.75;0.30;;;9.80;99.90;;;;;;6341552;22;20006;-86
2024/02/06 06:52:21;;;;;;;0.10;0.10;;;9.80;99.90;;;;;;6370471;22;20006;-87
2024/02/06 06:54:47;;;;;;;3.53;0.20;;;9.80;99.90;;;;;;6341656;22;20013;-86
2024/02/06 06:57:12;;;;;;;0.20;0.13;;;9.80;99.90;;;;;;6342309;22;20006;-87
2024/02/06 06:59:39;;;;;;;0.00;0.00;;;9.90;99.90;;;;;;6342277;22;20325;-87
2024/02/06 07:02:05;;;;;;;2.85;0.20;;;9.80;99.90;;;;;;6341946;22;20009;-86
2024/02/06 07:04:31;;;;;;;0.40;0.22;;;9.80;99.90;;;;;;6342504;22;20026;-87
2024/02/06 07:06:56;;;;;;;2.33;0.13;;;9.90;99.90;;;;;;6342503;22;20010;-86
2024/02/06 07:09:25;;;;;;;1.42;0.35;;;9.90;99.90;;;;;;6341875;22;20329;-87
2024/02/06 07:11:51;;;;;;;1.15;0.10;;;9.90;99.90;;;;;;6341705;22;20022;-86
2024/02/06 07:14:17;;;;;;;1.23;0.25;;;9.90;99.90;;;;;;6342921;22;20077;-86
2024/02/06 07:16:43;;;;;;;2.28;0.28;;;9.90;99.90;;;;;;6342093;22;20009;-87
2024/02/06 07:19:09;;;;;;;1.10;0.20;;;9.90;99.90;;;;;;6343566;22;20086;-87
2024/02/06 07:21:35;;;;;;;2.28;0.20;;;9.90;99.90;;;;;;6345875;22;20013;-86
2024/02/06 07:24:01;;;;;;;0.95;0.25;;;9.90;99.90;;;;;;6344602;22;20006;-87
2024/02/06 07:26:27;;;;;;;1.63;0.30;;;9.90;99.90;;;;;;6342781;22;20021;-87
2024/02/06 07:28:54;;;;;;;0.10;0.08;;;9.90;99.90;;;;;;6341513;22;20010;-86
2024/02/06 07:31:20;;;;;;;0.10;0.10;;;9.90;99.90;;;;;;6341559;22;20012;-87
2024/02/06 07:33:46;;;;;;;0.10;0.10;;;9.90;99.90;;;;;;6369505;22;20455;-87
2024/02/06 07:36:12;;;;;;;1.45;0.20;;;9.90;99.90;;;;;;6341980;22;20032;-86
2024/02/06 07:38:38;;;;;;;0.55;0.10;;;9.90;99.90;;;;;;6341689;22;20006;-87
2024/02/06 07:41:04;;;;;;;0.40;0.20;;;9.80;99.90;;;;;;6369322;22;20009;-86
2024/02/06 07:43:29;;;;;;;2.90;0.25;;;9.80;99.90;;;;;;6340656;22;20011;-88
2024/02/06 07:45:55;;;;;;;1.10;0.28;;;9.80;99.90;;;;;;6368381;22;20283;-89
2024/02/06 07:48:22;;;;;;;0.20;0.20;;;9.80;99.90;;;;;;6340574;22;19994;-87
2024/02/06 07:50:49;;;;;;;0.50;0.08;;;9.80;99.90;;;;;;6340707;22;20034;-88
2024/02/06 07:53:16;;;;;;;0.20;0.15;;;9.80;99.90;;;;;;6341431;22;20011;-87
2024/02/06 07:55:41;;;;;;;1.27;0.10;;;9.70;99.90;;;;;;6341751;22;20002;-87
2024/02/06 07:58:07;;;;;;;1.17;0.32;;;9.70;99.90;;;;;;6368737;22;20055;-87
2024/02/06 08:00:34;;;;;;;1.23;0.20;;;9.70;99.90;;;;;;6368588;22;20373;-88
2024/02/06 08:03:01;;;;;;;0.63;0.20;;;9.70;99.90;;;;;;6368873;22;19998;-89
2024/02/06 08:05:28;;;;;;;1.58;0.20;;;9.70;99.90;;;;;;6370167;22;20013;-86
2024/02/06 08:07:54;;;;;;;0.70;0.20;;;9.60;99.90;;;;;;6342893;22;20002;-86
2024/02/06 08:10:20;;;;;;;0.52;0.10;;;9.60;99.90;;;;;;6368253;22;20055;-87
2024/02/06 08:12:46;;;;;;;0.57;0.20;;;9.60;99.90;;;;;;6340569;22;20467;-87
2024/02/06 08:15:12;;;;;;;0.85;0.25;;;9.60;99.90;;;;;;6342231;22;20034;-87
2024/02/06 08:17:40;;;;;;;0.40;0.20;;;9.60;99.90;;;;;;6370416;22;20005;-87
2024/02/06 08:20:09;;;;;;;1.55;0.40;;;9.60;99.90;;;;;;6340702;22;20100;-90
2024/02/06 08:22:36;;;;;;;1.42;0.43;;;9.50;99.90;;;;;;6341496;22;20018;-87
2024/02/06 08:25:06;;;;;;;2.40;0.70;;;9.50;99.90;;;;;;6341129;22;20006;-87
2024/02/06 08:27:32;;;;;;;2.08;0.90;;;9.50;99.90;;;;;;6316409;22;20505;-87
2024/02/06 08:29:58;;;;;;;2.00;0.98;;;9.40;99.90;;;;;;6341683;22;20017;-86
2024/02/06 08:32:23;;;;;;;4.13;0.98;;;9.40;99.90;;;;;;6341212;22;20014;-87
2024/02/06 08:34:49;;;;;;;1.70;0.65;;;9.40;99.90;;;;;;6341538;22;20003;-87
2024/02/06 08:37:15;;;;;;;1.80;0.52;;;9.40;99.90;;;;;;6341107;22;20013;-87
2024/02/06 08:39:40;;;;;;;2.72;0.60;;;9.40;99.90;;;;;;6369874;22;19995;-88
2024/02/06 08:42:06;;;;;;;3.78;0.50;;;9.40;99.90;;;;;;6340942;22;20032;-87
2024/02/06 08:44:32;;;;;;;5.43;0.70;;;9.40;99.90;;;;;;6341348;22;20025;-87
2024/02/06 08:46:58;;;;;;;3.17;0.50;;;9.30;99.90;;;;;;6341943;22;20002;-87
2024/02/06 08:49:24;;;;;;;5.63;0.80;;;9.40;99.90;;;;;;6341955;22;20009;-88
2024/02/06 08:51:51;;;;;;;1.13;0.47;;;9.40;99.90;;;;;;6340305;22;20382;-87
2024/02/06 08:54:20;;;;;;;5.35;0.75;;;9.40;99.90;;;;;;6369152;22;20043;-88
2024/02/06 08:56:47;;;;;;;6.57;1.00;;;9.40;99.90;;;;;;6341135;22;20053;-87
2024/02/06 08:59:12;;;;;;;2.42;1.00;;;9.40;99.90;;;;;;6366551;22;20002;-88
2024/02/06 09:01:38;;;;;;;7.35;1.05;;;9.40;99.90;;;;;;6339496;22;20003;-86
2024/02/06 09:04:06;;;;;;;6.80;1.30;;;9.40;99.90;;;;;;6368307;22;20044;-86
2024/02/06 09:06:32;;;;;;;3.10;0.90;;;9.40;99.90;;;;;;6368751;22;20013;-88
2024/02/06 09:08:58;;;;;;;5.30;1.10;;;9.40;99.90;;;;;;6340193;22;20496;-88
2024/02/06 09:11:27;;;;;;;4.10;0.88;;;9.40;99.90;;;;;;6369613;22;20002;-86
2024/02/06 09:13:55;;;;;;;8.10;1.23;;;9.50;99.90;;;;;;6341541;22;20006;-86
2024/02/06 09:16:22;;;;;;;9.57;1.25;;;9.50;99.90;;;;;;6341498;22;20017;-87
2024/02/06 09:18:52;;;;;;;13.63;1.60;;;9.50;99.90;;;;;;6341110;22;20414;-87
2024/02/06 09:21:19;;;;;;;8.65;1.98;;;9.50;99.90;;;;;;6368418;22;20009;-86
2024/02/06 09:23:46;;;;;;;5.40;2.13;;;9.60;99.90;;;;;;6341099;22;20011;-86
2024/02/06 09:26:12;;;;;;;6.80;1.27;;;9.60;99.90;;;;;;6341342;22;20007;-86
2024/02/06 09:28:38;;;;;;;2.70;0.60;;;9.60;99.90;;;;;;6342223;22;19998;-86
2024/02/06 09:31:05;;;;;;;11.18;1.23;;;9.70;99.90;;;;;;6341856;22;20033;-85
2024/02/06 09:33:31;;;;;;;8.13;1.05;;;9.70;99.90;;;;;;6341849;22;20441;-86
2024/02/06 09:35:57;;;;;;;3.03;0.65;;;9.80;99.90;;;;;;6342423;22;20033;-85
2024/02/06 09:38:23;;;;;;;4.70;1.13;;;9.80;99.90;;;;;;6342259;22;20010;-86
2024/02/06 09:40:50;;;;;;;2.83;0.80;;;9.80;99.90;;;;;;6370138;22;20441;-86
2024/02/06 09:43:16;;;;;;;5.63;1.13;;;9.90;99.90;;;;;;6342327;22;19994;-86
2024/02/06 09:45:42;;;;;;;6.22;1.08;;;9.90;99.90;;;;;;6342261;22;20063;-87
2024/02/06 09:48:08;;;;;;;7.90;1.45;;;10.00;99.90;;;;;;6343342;22;20059;-86
2024/02/06 09:50:34;;;;;;;4.30;1.40;;;10.00;99.90;;;;;;6344034;22;20424;-87
2024/02/06 09:53:01;;;;;;;8.77;1.80;;;10.00;99.90;;;;;;6343696;22;20014;-87
2024/02/06 09:55:27;;;;;;;10.48;1.70;;;10.10;99.90;;;;;;6343063;22;20006;-85
2024/02/06 09:57:54;;;;;;;9.40;1.60;;;10.10;99.90;;;;;;6343204;22;20459;-86
2024/02/06 10:00:20;;;;;;;12.38;2.40;;;10.20;99.90;;;;;;6371220;22;20043;-88
2024/02/06 10:02:48;;;;;;;14.30;3.55;;;10.20;99.90;;;;;;6344634;22;20017;-86
2024/02/06 10:05:19;;;;;;;7.57;2.13;;;10.20;99.90;;;;;;6375213;22;20003;-87
2024/02/06 10:07:46;;;;;;;;;;;10.20;99.90;;;;;;6346857;22;20002;-86
2024/02/06 10:10:14;;;;;;;5.75;2.17;;;10.30;99.90;;;;;;6375246;22;19955;-88
2024/02/06 10:12:43;;;;;;;14.75;3.10;;;10.30;99.90;;;;;;6346829;22;20096;-86
2024/02/06 10:15:15;;;;;;;13.68;3.47;;;10.40;99.90;;;;;;6345563;22;20032;-87
2024/02/06 10:17:41;;;;;;;14.13;3.72;;;10.40;99.90;;;;;;6343853;22;20010;-86
2024/02/06 10:20:07;;;;;;;11.43;2.95;;;10.50;99.90;;;;;;6344084;22;20002;-87
2024/02/06 10:22:33;;;;;;;16.15;5.75;;;10.50;99.90;;;;;;6373843;22;20322;-87
2024/02/06 10:25:05;;;;;;;13.75;5.80;;;10.50;99.90;;;;;;6374988;22;19995;-87
2024/02/06 10:27:31;;;;;;;18.67;10.38;;;10.50;99.90;;;;;;6345342;22;20013;-87
2024/02/06 10:30:12;;;;;;;17.30;4.18;;;10.50;99.90;;;;;;6344548;22;20003;-87
2024/02/06 10:32:39;;;;;;;8.63;3.40;;;10.50;99.90;;;;;;6373519;22;20025;-87
2024/02/06 10:35:06;;;;;;;6.85;2.65;;;10.60;99.90;;;;;;6345130;22;20002;-88
2024/02/06 10:37:39;;;;;;;16.00;4.72;;;10.60;99.90;;;;;;6371818;22;20009;-88
2024/02/06 10:40:11;;;;;;;18.80;8.85;;;10.60;99.90;;;;;;6343772;22;20008;-88
2024/02/06 10:42:39;;;;;;;12.98;5.22;;;10.60;99.90;;;;;;6345610;22;20014;-87
2024/02/06 10:45:07;;;;;;;17.80;7.28;;;10.70;99.90;;;;;;6346629;22;20024;-87
2024/02/06 10:47:33;;;;;;;11.50;4.22;;;10.60;99.90;;;;;;6347092;22;20089;-88
2024/02/06 10:50:06;;;;;;;11.00;5.45;;;10.60;99.90;;;;;;6378336;22;19995;-89
2024/02/06 10:52:33;;;;;;;11.88;3.70;;;10.60;99.90;;;;;;6386814;22;20033;-88
2024/02/06 10:54:59;;;;;;;6.72;3.20;;;10.60;99.90;;;;;;6325060;22;20006;-87
2024/02/06 10:57:32;;;;;;;15.32;2.97;;;10.70;99.90;;;;;;6377591;22;20006;-88
2024/02/06 11:00:15;;;;;;;24.50;5.88;;;10.70;99.90;;;;;;6382747;22;20026;-88
2024/02/06 11:02:44;;;;;;;11.05;3.63;;;10.70;99.90;;;;;;6349998;22;20003;-88
2024/02/06 11:05:22;;;;;;;15.80;3.90;;;10.70;99.90;;;;;;6374461;22;20002;-88
2024/02/06 11:07:54;;;;;;;11.48;2.38;;;10.80;99.90;;;;;;6343695;22;20008;-88
2024/02/06 11:10:22;;;;;;;12.68;4.47;;;10.90;99.90;;;;;;6370382;22;20080;-88
2024/02/06 11:12:58;;;;;;;15.13;3.58;;;10.90;99.90;;;;;;6341378;22;20018;-87
2024/02/06 11:15:25;;;;;;;9.70;1.85;;;10.90;99.90;;;;;;6341424;22;19998;-88
2024/02/06 11:17:52;;;;;;;10.63;1.63;;;10.90;99.90;;;;;;6342107;22;20017;-89
2024/02/06 11:20:23;;;;;;;12.68;2.63;;;10.80;99.90;;;;;;6369878;22;19994;-87
2024/02/06 11:22:52;;;;;;;;;;;10.80;99.90;;;;;;6370311;22;20033;-87
2024/02/06 11:25:20;;;;;;;6.03;1.60;;;10.90;99.90;;;;;;6369100;22;20224;-88
2024/02/06 11:27:47;;;;;;;14.32;2.97;;;10.90;99.90;;;;;;6341497;22;20009;-88
2024/02/06 11:30:15;;;;;;;7.15;2.72;;;10.90;99.90;;;;;;6369117;22;20081;-87
2024/02/06 11:32:41;;;;;;;10.35;2.00;;;11.00;99.90;;;;;;6341548;22;20125;-86
2024/02/06 11:35:07;;;;;;;8.05;1.75;;;11.10;99.90;;;;;;6340552;22;20037;-90
2024/02/06 11:37:33;;;;;;;17.73;2.22;;;11.10;99.90;;;;;;6341096;22;20052;-87
2024/02/06 11:40:10;;;;;;;13.32;2.78;;;11.20;99.90;;;;;;6341771;22;20363;-87
2024/02/06 11:42:37;;;;;;;14.38;3.45;;;11.20;99.90;;;;;;6341432;22;20102;-87
2024/02/06 11:45:18;;;;;;;12.60;3.08;;;11.10;99.90;;;;;;6341532;22;19999;-87
2024/02/06 11:47:55;;;;;;;12.98;1.50;;;11.10;99.90;;;;;;6340939;22;20097;-88
2024/02/06 11:50:53;;;;;;;4.72;1.63;;;11.00;99.90;;;;;;6341659;22;20006;-88
2024/02/06 11:53:25;;;;;;;8.70;2.25;;;11.00;99.90;;;;;;6316889;22;20014;-88
2024/02/06 11:55:52;;;;;;;11.88;2.45;;;11.00;99.90;;;;;;6342144;22;20005;-90
2024/02/06 11:58:18;;;;;;;8.93;2.58;;;11.00;99.90;;;;;;6341822;22;20060;-89
2024/02/06 12:00:44;;;;;;;9.73;1.77;;;11.10;99.90;;;;;;6341610;22;20002;-87
2024/02/06 12:03:13;;;;;;;16.45;3.40;;;11.20;99.90;;;;;;6341182;22;20033;-88
2024/02/06 12:05:41;;;;;;;10.38;2.42;;;11.30;99.90;;;;;;6341223;22;20007;-89
2024/02/06 12:08:07;;;;;;;5.70;1.17;;;11.40;99.90;;;;;;6315499;22;20003;-87
2024/02/06 12:10:35;;;;;;;11.68;2.22;;;11.50;99.90;;;;;;6368921;22;20402;-87
2024/02/06 12:13:11;;;;;;;13.77;2.38;;;11.60;99.90;;;;;;6340784;22;20018;-87
2024/02/06 12:15:38;;;;;;;7.15;1.70;;;11.60;99.90;;;;;;6369453;22;20002;-87
2024/02/06 12:18:11;;;;;;;13.40;2.58;;;11.50;99.90;;;;;;6340853;22;19998;-88
2024/02/06 12:20:37;;;;;;;15.75;3.00;;;11.50;99.90;;;;;;6334047;22;20010;-86
2024/02/06 12:23:06;;;;;;;19.23;4.28;;;11.50;99.90;;;;;;6341568;22;20037;-88
2024/02/06 12:25:38;;;;;;;12.88;2.50;;;11.40;99.90;;;;;;6370088;22;20433;-89
2024/02/06 12:28:15;;;;;;;15.82;4.93;;;11.40;99.90;;;;;;6369043;22;20043;-87
2024/02/06 12:30:49;;;;;;;15.88;2.10;;;11.30;99.90;;;;;;6341569;22;20002;-88
2024/02/06 12:33:16;;;;;;;10.80;2.72;;;11.30;99.90;;;;;;6368423;22;20050;-88
2024/02/06 12:35:42;;;;;;;12.65;2.80;;;11.20;99.90;;;;;;6339992;22;20006;-87
2024/02/06 12:38:08;;;;;;;8.48;3.95;;;11.10;99.90;;;;;;6340600;22;20412;-88
2024/02/06 12:40:36;;;;;;;19.58;2.63;;;11.10;99.90;;;;;;6341183;22;20002;-87
2024/02/06 12:43:11;;;;;;;3.15;0.90;;;11.00;99.90;;;;;;6368625;22;20431;-87
2024/02/06 12:45:39;;;;;;;6.20;1.00;;;10.90;99.90;;;;;;6368277;22;20009;-87
2024/02/06 12:48:07;;;;;;;4.13;1.17;;;10.70;99.90;;;;;;6341148;22;20431;-87
2024/02/06 12:50:32;;;;;;;1.80;0.63;;;10.60;99.90;;;;;;6342505;22;20017;-88